createdAt,value
2023-05-19T00:01:29.099Z,102676.66
2023-05-19T00:04:05.118Z,102684.81
2023-05-19T00:06:35.898Z,102536.28
2023-05-19T00:09:13.184Z,102683.09
2023-05-19T00:11:40.384Z,102673.38
2023-05-19T00:14:07.779Z,102689.97
2023-05-19T00:16:36.220Z,102692.13
2023-05-19T00:19:04.548Z,102665.47
2023-05-19T00:21:32.147Z,102686.81
2023-05-19T00:23:59.003Z,102682.94
2023-05-19T00:26:27.090Z,102644.44
2023-05-19T00:29:02.359Z,102674.38
2023-05-19T00:31:29.111Z,102672.22
2023-05-19T00:33:55.849Z,102674.63
2023-05-19T00:36:22.683Z,102675.66
2023-05-19T00:38:49.387Z,102644.44
2023-05-19T00:41:15.992Z,102671.94
2023-05-19T00:43:42.865Z,102642.59
2023-05-19T00:46:10.954Z,102592.59
2023-05-19T00:48:37.841Z,102656.19
2023-05-19T00:51:06.570Z,102657.47
2023-05-19T00:53:36.031Z,102663.34
2023-05-19T00:56:03.361Z,102661.50
2023-05-19T00:58:33.882Z,102654.47
2023-05-19T01:01:05.205Z,102651.75
2023-05-19T01:03:35.215Z,102668.50
2023-05-19T01:06:05.404Z,102639.00
2023-05-19T01:08:33.240Z,102667.06
2023-05-19T01:11:00.487Z,102660.34
2023-05-19T01:13:27.215Z,102660.91
2023-05-19T01:16:09.039Z,102661.50
2023-05-19T01:18:39.434Z,102669.22
2023-05-19T01:21:36.299Z,102669.78
2023-05-19T01:24:22.998Z,102558.53
2023-05-19T01:27:42.036Z,102639.00
2023-05-19T01:30:30.010Z,102661.03
2023-05-19T01:33:00.543Z,102651.47
2023-05-19T01:35:28.254Z,102670.66
2023-05-19T01:37:59.679Z,102665.50
2023-05-19T01:40:27.813Z,102663.63
2023-05-19T01:42:57.866Z,102661.03
2023-05-19T01:45:28.660Z,102663.63
2023-05-19T01:47:58.497Z,102631.81
2023-05-19T01:50:25.995Z,102669.06
2023-05-19T01:52:53.178Z,102649.31
2023-05-19T01:55:21.379Z,102676.38
2023-05-19T01:58:19.488Z,102683.09
2023-05-19T02:00:58.518Z,102675.81
2023-05-19T02:04:03.266Z,102662.91
2023-05-19T02:06:37.419Z,102691.09
2023-05-19T02:09:25.694Z,102682.81
2023-05-19T02:11:54.612Z,102684.81
2023-05-19T02:14:27.353Z,102663.19
2023-05-19T02:16:54.104Z,102635.00
2023-05-19T02:19:26.877Z,102669.34
2023-05-19T02:21:58.414Z,102581.84
2023-05-19T02:24:25.468Z,102674.50
2023-05-19T02:26:52.986Z,102671.06
2023-05-19T02:29:20.673Z,102648.72
2023-05-19T02:31:48.002Z,102599.44
2023-05-19T02:34:14.858Z,102667.91
2023-05-19T02:36:49.783Z,102670.50
2023-05-19T02:39:16.757Z,102665.63
2023-05-19T02:41:43.382Z,102663.47
2023-05-19T02:44:10.129Z,102664.06
2023-05-19T02:46:37.050Z,102668.22
2023-05-19T02:49:03.768Z,102669.34
2023-05-19T02:51:30.514Z,102663.19
2023-05-19T02:53:57.202Z,102664.91
2023-05-19T02:56:26.524Z,102669.38
2023-05-19T02:58:53.273Z,102665.50
2023-05-19T03:01:22.107Z,102662.63
2023-05-19T03:03:49.079Z,102659.03
2023-05-19T03:06:18.769Z,102651.88
2023-05-19T03:08:45.453Z,102652.44
2023-05-19T03:11:12.134Z,102657.88
2023-05-19T03:13:38.949Z,102657.00
2023-05-19T03:16:08.334Z,102633.91
2023-05-19T03:18:35.241Z,102658.56
2023-05-19T03:21:01.940Z,102655.00
2023-05-19T03:23:28.625Z,102648.28
2023-05-19T03:25:56.317Z,102643.25
2023-05-19T03:28:23.459Z,102645.81
2023-05-19T03:30:50.835Z,102638.03
2023-05-19T03:33:20.855Z,102645.25
2023-05-19T03:35:47.878Z,102652.13
2023-05-19T03:38:15.475Z,102644.84
2023-05-19T03:40:49.545Z,102585.13
2023-05-19T03:43:16.307Z,102649.22
2023-05-19T03:45:51.911Z,102519.09
2023-05-19T03:48:38.581Z,102620.41
2023-05-19T03:51:29.934Z,102650.31
2023-05-19T03:54:05.344Z,102666.38
2023-05-19T03:56:32.943Z,102648.59
2023-05-19T03:59:00.286Z,102599.50
2023-05-19T04:01:26.984Z,102628.94
2023-05-19T04:03:53.638Z,102661.28
2023-05-19T04:06:20.423Z,102642.56
2023-05-19T04:08:47.127Z,102665.19
2023-05-19T04:11:13.861Z,102663.41
2023-05-19T04:13:40.509Z,102638.75
2023-05-19T04:16:07.593Z,102643.47
2023-05-19T04:18:34.181Z,102668.88
2023-05-19T04:21:01.743Z,102638.88
2023-05-19T04:23:28.391Z,102638.69
2023-05-19T04:25:57.061Z,102672.59
2023-05-19T04:28:24.177Z,102668.22
2023-05-19T04:30:51.772Z,102661.69
2023-05-19T04:33:20.158Z,102669.47
2023-05-19T04:35:47.136Z,102664.16
2023-05-19T04:38:18.833Z,102668.56
2023-05-19T04:40:50.090Z,102659.47
2023-05-19T04:43:18.024Z,102669.56
2023-05-19T04:45:44.913Z,102647.13
2023-05-19T04:48:12.350Z,102669.41
2023-05-19T04:50:42.198Z,102670.16
2023-05-19T04:53:09.704Z,102671.13
2023-05-19T04:55:38.602Z,102641.47
2023-05-19T04:58:06.516Z,102667.09
2023-05-19T05:00:35.791Z,102667.34
2023-05-19T05:03:06.385Z,102667.16
2023-05-19T05:05:35.024Z,102670.44
2023-05-19T05:08:01.729Z,102662.09
2023-05-19T05:10:32.654Z,102670.38
2023-05-19T05:13:00.824Z,102673.44
2023-05-19T05:15:29.920Z,102569.56
2023-05-19T05:17:59.398Z,102664.75
2023-05-19T05:20:26.671Z,102634.63
2023-05-19T05:22:54.012Z,102673.19
2023-05-19T05:25:21.933Z,102491.13
2023-05-19T05:27:49.011Z,102649.63
2023-05-19T05:30:15.930Z,102646.78
2023-05-19T05:32:42.790Z,102669.84
2023-05-19T05:35:19.147Z,102671.97
2023-05-19T05:37:45.909Z,102678.13
2023-05-19T05:40:13.127Z,102683.94
2023-05-19T05:42:39.974Z,102680.56
2023-05-19T05:45:07.480Z,102675.75
2023-05-19T05:47:38.409Z,102675.28
2023-05-19T05:50:06.939Z,102675.13
2023-05-19T05:52:34.030Z,102676.88
2023-05-19T05:55:01.588Z,102678.41
2023-05-19T05:57:30.740Z,102681.03
2023-05-19T05:59:57.877Z,102681.50
2023-05-19T06:02:24.787Z,102624.66
2023-05-19T06:04:51.552Z,102678.00
2023-05-19T06:07:18.636Z,102679.88
2023-05-19T06:09:45.280Z,102683.66
2023-05-19T06:12:12.002Z,102676.53
2023-05-19T06:14:44.069Z,102656.22
2023-05-19T06:17:10.964Z,102625.22
2023-05-19T06:19:37.710Z,102683.06
2023-05-19T06:22:04.457Z,102687.03
2023-05-19T06:24:31.467Z,102657.00
2023-05-19T06:26:58.831Z,102672.38
2023-05-19T06:29:25.438Z,102683.81
2023-05-19T06:31:54.178Z,102679.00
2023-05-19T06:34:21.353Z,102678.03
2023-05-19T06:36:48.167Z,102675.41
2023-05-19T06:39:16.253Z,102633.13
2023-05-19T06:41:43.298Z,102677.47
2023-05-19T06:44:25.183Z,102672.69
2023-05-19T06:46:51.892Z,102681.41
2023-05-19T06:49:19.293Z,102679.97
2023-05-19T06:51:47.805Z,102647.00
2023-05-19T06:54:16.367Z,102680.94
2023-05-19T06:56:43.198Z,102682.84
2023-05-19T06:59:10.430Z,102688.53
2023-05-19T07:01:38.075Z,102692.69
2023-05-19T07:04:05.121Z,102684.00
2023-05-19T07:06:31.830Z,102695.03
2023-05-19T07:08:58.518Z,102686.94
2023-05-19T07:11:26.556Z,102585.22
2023-05-19T07:13:53.832Z,102682.44
2023-05-19T07:16:26.370Z,102684.00
2023-05-19T07:18:54.996Z,102688.28
2023-05-19T07:21:21.809Z,102594.94
2023-05-19T07:23:50.297Z,102683.44
2023-05-19T07:26:19.950Z,102598.53
2023-05-19T07:28:46.621Z,102663.91
2023-05-19T07:31:13.390Z,102672.66
2023-05-19T07:33:40.824Z,102673.59
2023-05-19T07:36:07.800Z,102683.84
2023-05-19T07:38:34.896Z,102664.56
2023-05-19T07:41:01.860Z,102686.13
2023-05-19T07:43:28.720Z,102633.66
2023-05-19T07:45:56.384Z,102689.91
2023-05-19T07:48:25.591Z,102678.69
2023-05-19T07:50:52.972Z,102641.75
2023-05-19T07:53:20.030Z,102673.34
2023-05-19T07:55:46.810Z,102673.72
2023-05-19T07:58:13.442Z,102677.50
2023-05-19T08:00:46.359Z,102584.38
2023-05-19T08:03:13.798Z,102666.28
2023-05-19T08:05:40.632Z,102658.75
2023-05-19T08:08:07.678Z,102664.88
2023-05-19T08:10:34.682Z,102657.00
2023-05-19T08:13:01.512Z,102639.00
2023-05-19T08:15:28.264Z,102661.16
2023-05-19T08:17:55.212Z,102663.66
2023-05-19T08:20:22.917Z,102665.53
2023-05-19T08:22:49.787Z,102664.22
2023-05-19T08:25:16.754Z,102664.81
2023-05-19T08:27:43.443Z,102622.84
2023-05-19T08:30:10.684Z,102664.06
2023-05-19T08:32:37.288Z,102660.03
2023-05-19T08:35:04.435Z,102665.31
2023-05-19T08:37:32.611Z,102659.03
2023-05-19T08:40:00.867Z,102672.13
2023-05-19T08:42:27.650Z,102591.72
2023-05-19T08:44:56.635Z,102660.84
2023-05-19T08:47:23.430Z,102662.47
2023-05-19T08:49:52.917Z,102660.19
2023-05-19T08:52:41.116Z,102648.72
2023-05-19T08:55:26.013Z,102643.84
2023-05-19T08:57:52.913Z,102621.16
2023-05-19T09:00:21.041Z,102616.97
2023-05-19T09:03:01.086Z,102645.63
2023-05-19T09:05:33.447Z,102640.41
2023-05-19T09:08:02.713Z,102487.75
2023-05-19T09:10:29.532Z,102634.25
2023-05-19T09:12:56.259Z,102634.03
2023-05-19T09:15:26.905Z,102635.22
2023-05-19T09:18:07.133Z,102570.75
2023-05-19T09:20:37.517Z,102637.31
2023-05-19T09:23:04.244Z,102635.94
2023-05-19T09:25:32.282Z,102633.88
2023-05-19T09:27:59.183Z,102636.69
2023-05-19T09:30:26.191Z,102625.75
2023-05-19T09:32:52.860Z,102623.34
2023-05-19T09:35:21.889Z,102628.75
2023-05-19T09:37:48.545Z,102600.13
2023-05-19T09:40:15.797Z,102629.63
2023-05-19T09:42:43.167Z,102624.09
2023-05-19T09:45:10.113Z,102626.25
2023-05-19T09:47:38.373Z,102595.22
2023-05-19T09:50:08.002Z,102610.22
2023-05-19T09:52:44.237Z,102620.78
2023-05-19T09:55:12.733Z,102610.66
2023-05-19T09:57:40.714Z,102614.16
2023-05-19T10:00:12.765Z,102606.56
2023-05-19T10:02:44.144Z,102605.88
2023-05-19T10:05:20.192Z,102609.03
2023-05-19T10:07:48.623Z,102590.97
2023-05-19T10:10:15.810Z,102599.97
2023-05-19T10:12:42.342Z,102595.31
2023-05-19T10:15:11.378Z,102599.31
2023-05-19T10:17:42.154Z,102601.03
2023-05-19T10:20:12.811Z,102604.44
2023-05-19T10:22:40.185Z,102605.50
2023-05-19T10:25:07.827Z,102576.44
2023-05-19T10:27:36.982Z,102586.13
2023-05-19T10:30:16.527Z,102541.56
2023-05-19T10:32:45.090Z,102544.56
2023-05-19T10:35:50.458Z,102588.03
2023-05-19T10:38:26.341Z,102576.53
2023-05-19T10:41:17.950Z,102576.78
2023-05-19T10:44:15.694Z,102583.00
2023-05-19T10:46:43.062Z,102564.72
2023-05-19T10:49:20.784Z,102572.84
2023-05-19T10:51:47.336Z,102574.19
2023-05-19T10:54:16.499Z,102571.34
2023-05-19T10:56:47.200Z,102550.78
2023-05-19T10:59:34.157Z,102545.75
2023-05-19T11:02:04.357Z,102544.91
2023-05-19T11:04:54.029Z,102568.94
2023-05-19T11:07:21.814Z,102561.50
2023-05-19T11:09:52.357Z,102575.59
2023-05-19T11:12:24.710Z,102405.09
2023-05-19T11:14:55.785Z,102497.47
2023-05-19T11:17:24.920Z,102481.34
2023-05-19T11:19:56.102Z,102555.09
2023-05-19T11:22:25.765Z,102549.81
2023-05-19T11:24:54.812Z,102561.38
2023-05-19T11:27:21.351Z,102544.44
2023-05-19T11:29:48.665Z,102555.72
2023-05-19T11:32:15.882Z,102483.88
2023-05-19T11:34:44.483Z,102488.94
2023-05-19T11:37:11.427Z,102528.03
2023-05-19T11:39:39.573Z,102447.69
2023-05-19T11:42:06.534Z,102523.50
2023-05-19T11:44:33.275Z,102526.03
2023-05-19T11:47:04.360Z,102528.66
2023-05-19T11:49:31.111Z,102515.88
2023-05-19T11:51:58.060Z,102487.28
2023-05-19T11:54:32.912Z,102513.22
2023-05-19T11:57:02.753Z,102521.78
2023-05-19T11:59:37.758Z,102536.53
2023-05-19T12:02:16.944Z,102511.88
2023-05-19T12:04:43.747Z,102486.97
2023-05-19T12:07:17.469Z,102540.75
2023-05-19T12:09:46.002Z,102515.72
2023-05-19T12:12:24.979Z,102545.88
2023-05-19T12:14:52.395Z,102541.22
2023-05-19T12:17:20.327Z,102527.81
2023-05-19T12:19:48.420Z,102526.13
2023-05-19T12:22:16.246Z,102525.31
2023-05-19T12:24:44.371Z,102489.16
2023-05-19T12:27:19.556Z,102516.38
2023-05-19T12:29:54.450Z,102504.91
2023-05-19T12:32:25.528Z,102508.97
2023-05-19T12:34:53.117Z,102507.88
2023-05-19T12:37:19.884Z,102487.44
2023-05-19T12:39:48.688Z,102490.63
2023-05-19T12:42:16.159Z,102496.34
2023-05-19T12:44:46.772Z,102399.41
2023-05-19T12:47:17.467Z,102487.06
2023-05-19T12:49:59.334Z,102498.69
2023-05-19T12:52:27.714Z,102483.19
2023-05-19T12:55:07.744Z,102494.06
2023-05-19T12:57:35.681Z,102434.47
2023-05-19T13:00:25.174Z,102492.75
2023-05-19T13:03:02.200Z,102491.69
2023-05-19T13:05:30.280Z,102472.75
2023-05-19T13:08:01.956Z,102498.28
2023-05-19T13:10:29.753Z,102459.97
2023-05-19T13:12:57.219Z,102481.69
2023-05-19T13:15:26.173Z,102467.22
2023-05-19T13:17:56.389Z,102479.31
2023-05-19T13:20:25.603Z,102461.22
2023-05-19T13:22:53.692Z,102399.59
2023-05-19T13:25:21.366Z,102488.06
2023-05-19T13:27:48.629Z,102456.41
2023-05-19T13:30:16.167Z,102482.34
2023-05-19T13:32:42.802Z,102424.47
2023-05-19T13:35:10.356Z,102360.28
2023-05-19T13:37:37.062Z,102317.97
2023-05-19T13:40:03.866Z,102488.72
2023-05-19T13:42:32.058Z,102492.53
2023-05-19T13:44:58.870Z,102478.94
2023-05-19T13:47:25.776Z,102456.59
2023-05-19T13:49:52.687Z,102455.31
2023-05-19T13:52:21.009Z,102475.75
2023-05-19T13:54:48.854Z,102449.16
2023-05-19T13:57:16.391Z,102478.31
2023-05-19T14:00:00.279Z,102421.31
2023-05-19T14:02:39.307Z,102470.84
2023-05-19T14:05:07.028Z,102461.94
2023-05-19T14:07:34.975Z,102467.22
2023-05-19T14:10:06.643Z,102468.53
2023-05-19T14:12:47.017Z,102471.06
2023-05-19T14:15:20.463Z,102472.97
2023-05-19T14:17:48.954Z,102460.00
2023-05-19T14:20:15.821Z,102462.34
2023-05-19T14:22:42.378Z,102439.38
2023-05-19T14:25:09.126Z,102460.84
2023-05-19T14:27:35.954Z,102412.38
2023-05-19T14:30:02.763Z,102451.72
2023-05-19T14:32:30.657Z,102458.09
2023-05-19T14:34:57.521Z,102457.25
2023-05-19T14:37:26.604Z,102463.84
2023-05-19T14:39:53.349Z,102474.03
2023-05-19T14:42:19.980Z,102292.44
2023-05-19T14:44:46.830Z,102470.88
2023-05-19T14:47:13.498Z,102434.72
2023-05-19T14:49:40.208Z,102460.22
2023-05-19T14:52:07.118Z,102428.94
2023-05-19T14:54:34.056Z,102457.25
2023-05-19T14:57:01.536Z,102456.63
2023-05-19T14:59:30.604Z,102463.84
2023-05-19T15:01:57.243Z,102434.94
2023-05-19T15:04:23.951Z,102465.53
2023-05-19T15:07:05.905Z,102457.88
2023-05-19T15:09:36.668Z,102447.88
2023-05-19T15:12:03.604Z,102457.47
2023-05-19T15:14:30.972Z,102462.56
2023-05-19T15:16:59.521Z,102467.69
2023-05-19T15:19:26.600Z,102434.69
2023-05-19T15:21:53.595Z,102450.19
2023-05-19T15:24:20.531Z,102449.56
2023-05-19T15:26:47.698Z,102407.66
2023-05-19T15:29:14.409Z,102441.69
2023-05-19T15:31:41.480Z,102404.47
2023-05-19T15:34:08.352Z,102439.56
2023-05-19T15:36:35.055Z,102407.22
2023-05-19T15:39:01.710Z,102424.28
2023-05-19T15:41:28.399Z,102446.28
2023-05-19T15:43:55.113Z,102396.81
2023-05-19T15:46:22.305Z,102446.34
2023-05-19T15:48:48.930Z,102409.31
2023-05-19T15:51:16.085Z,102457.63
2023-05-19T15:53:42.823Z,102460.22
2023-05-19T15:56:09.548Z,102451.91
2023-05-19T15:58:36.193Z,102460.63
2023-05-19T16:01:03.164Z,102311.84
2023-05-19T16:03:30.055Z,102450.00
2023-05-19T16:05:57.073Z,102455.97
2023-05-19T16:08:23.825Z,102460.00
2023-05-19T16:10:50.606Z,102452.31
2023-05-19T16:13:17.290Z,102386.22
2023-05-19T16:15:43.918Z,102453.81
2023-05-19T16:18:11.528Z,102457.66
2023-05-19T16:20:38.431Z,102302.25
2023-05-19T16:23:05.123Z,102402.41
2023-05-19T16:25:31.792Z,102439.31
2023-05-19T16:27:58.505Z,102435.56
2023-05-19T16:30:26.423Z,102450.63
2023-05-19T16:32:54.321Z,102450.81
2023-05-19T16:35:21.654Z,102448.09
2023-05-19T16:37:48.622Z,102447.63
2023-05-19T16:40:15.433Z,102449.09
2023-05-19T16:42:42.093Z,102445.75
2023-05-19T16:45:09.353Z,102443.84
2023-05-19T16:47:36.116Z,102452.13
2023-05-19T16:50:03.731Z,102379.84
2023-05-19T16:52:30.503Z,102454.69
2023-05-19T16:54:57.310Z,102451.91
2023-05-19T16:57:24.124Z,102401.75
2023-05-19T16:59:51.049Z,102455.31
2023-05-19T17:02:17.690Z,102429.56
2023-05-19T17:04:44.337Z,102388.97
2023-05-19T17:07:15.705Z,102414.06
2023-05-19T17:09:43.092Z,102424.03
2023-05-19T17:12:09.912Z,102423.22
2023-05-19T17:14:36.758Z,102416.81
2023-05-19T17:17:03.489Z,102453.19
2023-05-19T17:19:30.206Z,102454.91
2023-05-19T17:21:56.903Z,102447.66
2023-05-19T17:24:23.598Z,102438.53
2023-05-19T17:26:50.192Z,102445.75
2023-05-19T17:29:16.825Z,102453.00
2023-05-19T17:31:43.965Z,102449.78
2023-05-19T17:34:10.647Z,102449.34
2023-05-19T17:36:37.274Z,102420.84
2023-05-19T17:39:04.112Z,102442.53
2023-05-19T17:41:30.957Z,102438.31
2023-05-19T17:43:57.592Z,102417.88
2023-05-19T17:46:24.267Z,102442.34
2023-05-19T17:48:50.944Z,102454.63
2023-05-19T17:51:17.814Z,102440.38
2023-05-19T17:53:45.429Z,102455.25
2023-05-19T17:56:12.800Z,102448.16
2023-05-19T17:58:41.273Z,102444.09
2023-05-19T18:01:08.574Z,102441.69
2023-05-19T18:03:35.598Z,102432.13
2023-05-19T18:06:02.426Z,102425.03
2023-05-19T18:08:30.877Z,102440.56
2023-05-19T18:10:58.286Z,102467.50
2023-05-19T18:13:26.077Z,102467.28
2023-05-19T18:15:52.868Z,102372.19
2023-05-19T18:18:19.864Z,102459.69
2023-05-19T18:20:46.651Z,102467.09
2023-05-19T18:23:13.455Z,102470.38
2023-05-19T18:25:40.111Z,102455.09
2023-05-19T18:28:07.083Z,102453.25
2023-05-19T18:30:33.976Z,102458.38
2023-05-19T18:33:03.765Z,102462.22
2023-05-19T18:35:31.291Z,102460.94
2023-05-19T18:37:58.087Z,102440.31
2023-05-19T18:40:24.796Z,102468.63
2023-05-19T18:42:51.496Z,102471.28
2023-05-19T18:45:18.448Z,102462.97
2023-05-19T18:47:45.114Z,102475.50
2023-05-19T18:50:11.780Z,102456.19
2023-05-19T18:52:38.402Z,102459.53
2023-05-19T18:55:05.634Z,102471.66
2023-05-19T18:57:33.413Z,102446.13
2023-05-19T19:00:00.098Z,102451.78
2023-05-19T19:02:27.039Z,102473.66
2023-05-19T19:04:53.747Z,102308.47
2023-05-19T19:07:20.465Z,102483.84
2023-05-19T19:09:47.070Z,102446.88
2023-05-19T19:12:13.770Z,102477.09
2023-05-19T19:14:40.430Z,102477.03
2023-05-19T19:17:07.289Z,102474.34
2023-05-19T19:19:34.108Z,102451.91
2023-05-19T19:22:01.053Z,102478.34
2023-05-19T19:24:28.445Z,102480.03
2023-05-19T19:26:55.137Z,102484.50
2023-05-19T19:29:22.202Z,102437.16
2023-05-19T19:31:48.947Z,102486.72
2023-05-19T19:34:15.961Z,102419.91
2023-05-19T19:36:42.661Z,102489.59
2023-05-19T19:39:09.525Z,102475.59
2023-05-19T19:41:36.694Z,102476.16
2023-05-19T19:44:03.599Z,102499.28
2023-05-19T19:46:30.364Z,102504.59
2023-05-19T19:49:00.602Z,102506.34
2023-05-19T19:51:28.270Z,102507.94
2023-05-19T19:53:54.936Z,102487.75
2023-05-19T19:56:24.588Z,102464.16
2023-05-19T19:58:51.237Z,102516.19
2023-05-19T20:01:20.369Z,102514.97
2023-05-19T20:03:48.113Z,102511.19
2023-05-19T20:06:15.376Z,102504.44
2023-05-19T20:08:41.928Z,102519.63
2023-05-19T20:11:10.918Z,102526.34
2023-05-19T20:13:37.577Z,102521.31
2023-05-19T20:16:04.592Z,102397.28
2023-05-19T20:18:31.156Z,102535.44
2023-05-19T20:20:57.879Z,102415.50
2023-05-19T20:23:24.608Z,102483.53
2023-05-19T20:26:10.292Z,102547.56
2023-05-19T20:28:38.074Z,102527.94
2023-05-19T20:31:05.147Z,102516.44
2023-05-19T20:33:32.022Z,102547.47
2023-05-19T20:35:58.631Z,102535.84
2023-05-19T20:38:25.317Z,102546.16
2023-05-19T20:40:52.624Z,102470.06
2023-05-19T20:43:19.387Z,102527.56
2023-05-19T20:45:46.480Z,102425.78
2023-05-19T20:48:16.396Z,102549.22
2023-05-19T20:50:43.171Z,102497.09
2023-05-19T20:53:10.068Z,102519.69
2023-05-19T20:55:38.289Z,102547.44
2023-05-19T20:58:05.183Z,102546.59
2023-05-19T21:00:32.436Z,102536.22
2023-05-19T21:02:59.446Z,102481.94
2023-05-19T21:05:26.290Z,102560.75
2023-05-19T21:07:52.923Z,102563.97
2023-05-19T21:10:19.507Z,102530.00
2023-05-19T21:12:47.653Z,102569.34
2023-05-19T21:15:14.401Z,102557.19
2023-05-19T21:17:41.378Z,102551.78
2023-05-19T21:20:08.872Z,102561.72
2023-05-19T21:22:36.139Z,102551.94
2023-05-19T21:25:02.909Z,102563.53
2023-05-19T21:27:31.936Z,102560.47
2023-05-19T21:29:58.950Z,102564.22
2023-05-19T21:32:25.980Z,102535.28
2023-05-19T21:34:52.569Z,102560.44
2023-05-19T21:37:20.374Z,102513.94
2023-05-19T21:39:47.140Z,102572.47
2023-05-19T21:42:13.874Z,102538.72
2023-05-19T21:44:40.818Z,102568.53
2023-05-19T21:47:10.445Z,102570.44
2023-05-19T21:49:38.426Z,102519.56
2023-05-19T21:52:05.610Z,102569.03
2023-05-19T21:54:32.072Z,102566.84
2023-05-19T21:56:58.653Z,102436.28
2023-05-19T21:59:26.226Z,102510.69
2023-05-19T22:01:52.897Z,102581.72
2023-05-19T22:04:21.109Z,102546.97
2023-05-19T22:06:47.845Z,102574.00
2023-05-19T22:09:14.525Z,102521.66
2023-05-19T22:11:41.566Z,102575.41
2023-05-19T22:14:08.314Z,102579.00
2023-05-19T22:16:35.265Z,102570.06
2023-05-19T22:19:04.618Z,102549.22
2023-05-19T22:21:32.023Z,102557.06
2023-05-19T22:23:58.681Z,102516.00
2023-05-19T22:26:27.724Z,102538.75
2023-05-19T22:28:55.399Z,102571.94
2023-05-19T22:31:22.531Z,102569.75
2023-05-19T22:33:49.196Z,102568.53
2023-05-19T22:36:16.671Z,102546.13
2023-05-19T22:38:43.187Z,102569.75
2023-05-19T22:41:09.814Z,102560.47
2023-05-19T22:43:36.935Z,102543.03
2023-05-19T22:46:03.628Z,102566.13
2023-05-19T22:48:30.249Z,102563.06
2023-05-19T22:50:56.975Z,102568.53
2023-05-19T22:53:23.744Z,102570.06
2023-05-19T22:55:50.446Z,102501.44
2023-05-19T22:58:17.409Z,102583.34
2023-05-19T23:00:44.208Z,102574.31
2023-05-19T23:03:13.203Z,102557.69
2023-05-19T23:05:40.509Z,102582.69
2023-05-19T23:08:07.118Z,102572.94
2023-05-19T23:10:33.881Z,102515.88
2023-05-19T23:13:00.628Z,102562.09
2023-05-19T23:15:27.255Z,102582.69
2023-05-19T23:17:54.712Z,102585.59
2023-05-19T23:20:21.346Z,102588.28
2023-05-19T23:22:47.937Z,102589.34
2023-05-19T23:25:14.667Z,102587.44
2023-05-19T23:27:41.351Z,102556.28
2023-05-19T23:30:08.715Z,102584.75
2023-05-19T23:32:35.403Z,102568.47
2023-05-19T23:35:16.802Z,102579.41
2023-05-19T23:37:43.399Z,102587.13
2023-05-19T23:40:10.372Z,102582.53
2023-05-19T23:42:37.140Z,102562.81
2023-05-19T23:45:04.733Z,102437.25
2023-05-19T23:47:31.444Z,102585.94
2023-05-19T23:50:00.919Z,102581.78
2023-05-19T23:52:27.557Z,102578.19
2023-05-19T23:54:54.161Z,102508.41
2023-05-19T23:57:20.946Z,102545.41
2023-05-19T23:59:47.652Z,102554.53
